首页
METAR-TAF:

METAR-TAF

机场 :

不来梅机场

不来梅, 德国

纬度: 53-03N, 经度: 008-48E, 海拔: 3米

当前天气观测

该预报发布于22分钟前的15:20 UTC
风速6节,风向北转西北,在西转西北之间变化
温度 22°C
湿度 41%
气压 1022 hPa
能见度10公里或以上
1500米以下无云,无积雨云

METAR: EDDW 081520Z 33006KT 300V010 CAVOK 22/08 Q1022 NOSIG

时间: 17:42 (15:42 UTC)

预报

该预报发布于4小时和42分钟前的11:00 UTC
预报有效从08日的 12点(UTC)到 09日的 12点(UTC)
风速5节,风向
能见度10公里或以上
1500米以下无云,无积雨云
成为
从 08日的 14点(UTC)到 08日的 16点(UTC)
风速5节,风向北转西北
几率 30% :
短暂存在
从 09日的 03点(UTC)到 09日的 06点(UTC)
能見度: 3500
轻雾

TAF: EDDW 081100Z 0812/0912 17005KT CAVOK BECMG 0814/0816 33005KT PROB30 TEMPO 0903/0906 3500 BR

超过4000个机场的气象观测和天气预报(METAR&TAF报告)。

可查询的气象台以黄色和红色小点在地图上表示。

将鼠标移到小点上方,可查看气象台名称。

然后点击查看天气观测和预报。

如需切换地图:点击带黑十字的绿色按钮放大地图;点击带横线的绿色按钮缩小地图;或者点击绿色箭头查看邻近地区的地图。


METAR-TAF: